Airfield :
LOGIN :

Register | Disclaimer

   EN    FR    IT 

 










Legend :    VFR   Marginal VFR   IFR   Intensive IFR   Very Intensive IFR
Visi :
Ceiling :
>= 8 km
>= 3000ft
5 to 8 km
1000 to 3000 ft
1500m to 5 km
500 to 1000 ft
800 to 1500m
200 to 500 ft
< 800m
< 200 ft
Symbols :   Thunderstorms  Fog  Heavy snow  Heavy precipitations  Wind > 20 kt
SIGMETs :     Misc.  Thunderstorms  Icing  Turbulence  Mountain Waves  Volcanic Ashes






- Airport Elevation : 231 ft
- IATA code : WTN


EGXW - RAF Waddington

CURRENT METAR :
  • 291750Z AUTO 21013KT 9999 BKN031/// BKN050/// 13/11 Q1006

EXPIRED METARs :
  • 291650Z AUTO 22011KT 9999 FEW014/// BKN024/// 13/11 Q1006
  • 291623Z 22013KT 9999 FEW014 OVC030 14/11 Q1006 TEMPO SCT015 RMK BLU TEMPO WHT
  • 291550Z 23015KT 9999 FEW014 BKN020 OVC040 14/12 Q1006 TEMPO FEW018 BKN025 RMK WHT TEMPO BLU

TAF TAF EGXW
Valid from the 29 at 15:00 until the 30 at 09:00 UTC


291349Z 2915/3009 22017G27KT 9999 BKN010
BECMG 2915/2917 BKN020
PROB40
TEMPO 2915/2921 FEW018 BKN025
TEMPO 2921/3009 SCT010
BECMG 3007/3009 26013KT
PROB30
TEMPO 3008/3009 6000 -RA



MET'MAP, your aeronautical weather chart ! - Copyright ORBIFLY December 2007 - Disclaimer

ORBIFLY MET'MAP TEAM :

Programming & Development : Alexandra Zaïnal
Concept & original design : Baudouin d'Aumeries
Assistance for programming : Marc-Olivier Méhu
Technical & hardware support : Manuel Goepfert

Contact : metmap@orbifly.com




SOURCES & CREDITS :

   NOAA